sensor_id;sensor_type;location;lat;lon;timestamp;P1;durP1;ratioP1;P2;durP2;ratioP2
71462;SDS011;59266;52.608;13.260;2022-12-18T00:01:03;39.15;;;12.50;;
71462;SDS011;59266;52.608;13.260;2022-12-18T00:03:41;47.72;;;12.77;;
71462;SDS011;59266;52.608;13.260;2022-12-18T00:06:08;43.20;;;11.90;;
71462;SDS011;59266;52.608;13.260;2022-12-18T00:08:35;52.83;;;14.50;;
71462;SDS011;59266;52.608;13.260;2022-12-18T00:11:05;50.72;;;12.35;;
71462;SDS011;59266;52.608;13.260;2022-12-18T00:13:33;50.28;;;13.68;;
71462;SDS011;59266;52.608;13.260;2022-12-18T00:16:05;67.93;;;16.35;;
71462;SDS011;59266;52.608;13.260;2022-12-18T00:21:01;43.17;;;11.95;;
71462;SDS011;59266;52.608;13.260;2022-12-18T00:23:30;47.80;;;11.95;;
71462;SDS011;59266;52.608;13.260;2022-12-18T00:26:06;51.95;;;14.10;;
71462;SDS011;59266;52.608;13.260;2022-12-18T00:28:34;32.80;;;9.95;;
71462;SDS011;59266;52.608;13.260;2022-12-18T00:31:01;37.03;;;11.05;;
71462;SDS011;59266;52.608;13.260;2022-12-18T00:33:32;45.38;;;11.38;;
71462;SDS011;59266;52.608;13.260;2022-12-18T00:36:06;42.70;;;12.13;;
71462;SDS011;59266;52.608;13.260;2022-12-18T00:38:35;49.53;;;12.13;;
71462;SDS011;59266;52.608;13.260;2022-12-18T00:41:02;47.38;;;12.02;;
71462;SDS011;59266;52.608;13.260;2022-12-18T00:43:34;47.08;;;12.25;;
71462;SDS011;59266;52.608;13.260;2022-12-18T00:46:02;47.75;;;11.48;;
71462;SDS011;59266;52.608;13.260;2022-12-18T00:48:30;44.72;;;12.77;;
71462;SDS011;59266;52.608;13.260;2022-12-18T00:50:57;41.13;;;12.02;;
71462;SDS011;59266;52.608;13.260;2022-12-18T00:53:23;38.17;;;11.68;;
71462;SDS011;59266;52.608;13.260;2022-12-18T00:55:50;52.03;;;12.80;;
71462;SDS011;59266;52.608;13.260;2022-12-18T00:58:16;47.50;;;12.30;;
71462;SDS011;59266;52.608;13.260;2022-12-18T01:00:43;43.42;;;11.63;;
71462;SDS011;59266;52.608;13.260;2022-12-18T01:03:12;36.47;;;11.18;;
71462;SDS011;59266;52.608;13.260;2022-12-18T01:05:41;52.30;;;12.45;;
71462;SDS011;59266;52.608;13.260;2022-12-18T01:08:08;49.60;;;13.52;;
71462;SDS011;59266;52.608;13.260;2022-12-18T01:10:35;40.90;;;11.43;;
71462;SDS011;59266;52.608;13.260;2022-12-18T01:13:01;45.40;;;11.88;;
71462;SDS011;59266;52.608;13.260;2022-12-18T01:15:28;40.08;;;11.98;;
71462;SDS011;59266;52.608;13.260;2022-12-18T01:17:54;50.38;;;12.90;;
71462;SDS011;59266;52.608;13.260;2022-12-18T01:20:21;41.83;;;12.80;;
71462;SDS011;59266;52.608;13.260;2022-12-18T01:22:48;46.53;;;12.38;;
71462;SDS011;59266;52.608;13.260;2022-12-18T01:25:14;45.47;;;11.93;;
71462;SDS011;59266;52.608;13.260;2022-12-18T01:27:41;39.92;;;11.60;;
71462;SDS011;59266;52.608;13.260;2022-12-18T01:30:08;40.33;;;10.52;;
71462;SDS011;59266;52.608;13.260;2022-12-18T01:32:34;45.53;;;12.43;;
71462;SDS011;59266;52.608;13.260;2022-12-18T01:35:01;38.00;;;10.20;;
71462;SDS011;59266;52.608;13.260;2022-12-18T01:37:29;39.28;;;10.05;;
71462;SDS011;59266;52.608;13.260;2022-12-18T01:39:55;49.55;;;12.38;;
71462;SDS011;59266;52.608;13.260;2022-12-18T01:42:22;43.22;;;11.02;;
71462;SDS011;59266;52.608;13.260;2022-12-18T01:44:53;42.38;;;11.65;;
71462;SDS011;59266;52.608;13.260;2022-12-18T01:50:13;42.92;;;12.05;;
71462;SDS011;59266;52.608;13.260;2022-12-18T01:52:43;58.03;;;15.25;;
71462;SDS011;59266;52.608;13.260;2022-12-18T01:55:16;34.78;;;10.60;;
71462;SDS011;59266;52.608;13.260;2022-12-18T01:57:44;51.75;;;13.80;;
71462;SDS011;59266;52.608;13.260;2022-12-18T02:00:14;45.15;;;11.50;;
71462;SDS011;59266;52.608;13.260;2022-12-18T02:02:43;41.85;;;13.07;;
71462;SDS011;59266;52.608;13.260;2022-12-18T02:05:12;51.53;;;12.25;;
71462;SDS011;59266;52.608;13.260;2022-12-18T02:13:27;33.60;;;9.95;;
71462;SDS011;59266;52.608;13.260;2022-12-18T02:21:58;33.92;;;9.90;;
71462;SDS011;59266;52.608;13.260;2022-12-18T02:24:54;40.58;;;10.48;;
71462;SDS011;59266;52.608;13.260;2022-12-18T02:27:28;41.15;;;11.38;;
71462;SDS011;59266;52.608;13.260;2022-12-18T02:29:57;34.75;;;9.52;;
71462;SDS011;59266;52.608;13.260;2022-12-18T02:32:36;40.72;;;10.95;;
71462;SDS011;59266;52.608;13.260;2022-12-18T02:35:08;45.78;;;11.57;;
71462;SDS011;59266;52.608;13.260;2022-12-18T02:37:39;38.28;;;10.68;;
71462;SDS011;59266;52.608;13.260;2022-12-18T02:40:07;49.08;;;12.85;;
71462;SDS011;59266;52.608;13.260;2022-12-18T02:42:42;55.60;;;13.38;;
71462;SDS011;59266;52.608;13.260;2022-12-18T02:45:09;81.43;;;15.40;;
71462;SDS011;59266;52.608;13.260;2022-12-18T02:47:37;60.78;;;13.90;;
71462;SDS011;59266;52.608;13.260;2022-12-18T02:52:37;42.55;;;10.50;;
71462;SDS011;59266;52.608;13.260;2022-12-18T03:00:20;45.30;;;13.25;;
71462;SDS011;59266;52.608;13.260;2022-12-18T03:02:55;41.70;;;10.52;;
71462;SDS011;59266;52.608;13.260;2022-12-18T03:05:28;41.42;;;11.43;;
71462;SDS011;59266;52.608;13.260;2022-12-18T03:08:03;42.67;;;11.38;;
71462;SDS011;59266;52.608;13.260;2022-12-18T03:10:34;41.25;;;13.18;;
71462;SDS011;59266;52.608;13.260;2022-12-18T03:13:09;52.90;;;13.70;;
71462;SDS011;59266;52.608;13.260;2022-12-18T03:16:05;55.15;;;12.23;;
71462;SDS011;59266;52.608;13.260;2022-12-18T03:18:35;51.05;;;13.18;;
71462;SDS011;59266;52.608;13.260;2022-12-18T03:21:05;45.35;;;11.13;;
71462;SDS011;59266;52.608;13.260;2022-12-18T03:23:35;44.97;;;12.27;;
71462;SDS011;59266;52.608;13.260;2022-12-18T03:26:11;43.08;;;12.98;;
71462;SDS011;59266;52.608;13.260;2022-12-18T03:28:42;44.63;;;10.90;;
71462;SDS011;59266;52.608;13.260;2022-12-18T03:31:14;43.90;;;10.95;;
71462;SDS011;59266;52.608;13.260;2022-12-18T03:33:43;41.25;;;10.35;;
71462;SDS011;59266;52.608;13.260;2022-12-18T03:36:16;55.58;;;13.63;;
71462;SDS011;59266;52.608;13.260;2022-12-18T03:38:43;46.20;;;12.27;;
71462;SDS011;59266;52.608;13.260;2022-12-18T03:41:22;40.05;;;11.45;;
71462;SDS011;59266;52.608;13.260;2022-12-18T03:44:04;50.08;;;13.65;;
71462;SDS011;59266;52.608;13.260;2022-12-18T03:46:51;49.28;;;11.65;;
71462;SDS011;59266;52.608;13.260;2022-12-18T03:49:43;39.72;;;10.32;;
71462;SDS011;59266;52.608;13.260;2022-12-18T03:52:18;35.58;;;11.07;;
71462;SDS011;59266;52.608;13.260;2022-12-18T03:54:49;41.53;;;11.23;;
71462;SDS011;59266;52.608;13.260;2022-12-18T03:57:21;43.58;;;11.90;;
71462;SDS011;59266;52.608;13.260;2022-12-18T03:59:54;35.42;;;9.68;;
71462;SDS011;59266;52.608;13.260;2022-12-18T04:02:23;48.58;;;11.70;;
71462;SDS011;59266;52.608;13.260;2022-12-18T04:04:52;39.67;;;10.27;;
71462;SDS011;59266;52.608;13.260;2022-12-18T04:07:22;40.15;;;10.88;;
71462;SDS011;59266;52.608;13.260;2022-12-18T04:09:50;45.75;;;12.50;;
71462;SDS011;59266;52.608;13.260;2022-12-18T04:12:21;41.85;;;11.82;;
71462;SDS011;59266;52.608;13.260;2022-12-18T04:14:51;36.72;;;10.20;;
71462;SDS011;59266;52.608;13.260;2022-12-18T04:17:18;46.22;;;12.88;;
71462;SDS011;59266;52.608;13.260;2022-12-18T04:19:44;39.28;;;10.30;;
71462;SDS011;59266;52.608;13.260;2022-12-18T04:22:11;49.90;;;14.32;;
71462;SDS011;59266;52.608;13.260;2022-12-18T04:24:37;54.08;;;12.70;;
71462;SDS011;59266;52.608;13.260;2022-12-18T04:27:04;50.70;;;12.65;;
71462;SDS011;59266;52.608;13.260;2022-12-18T04:29:31;49.95;;;12.73;;
71462;SDS011;59266;52.608;13.260;2022-12-18T04:31:59;52.83;;;12.50;;
71462;SDS011;59266;52.608;13.260;2022-12-18T04:34:26;39.30;;;10.38;;
71462;SDS011;59266;52.608;13.260;2022-12-18T04:36:52;33.47;;;10.85;;
71462;SDS011;59266;52.608;13.260;2022-12-18T04:39:19;37.45;;;10.55;;
71462;SDS011;59266;52.608;13.260;2022-12-18T04:41:45;61.17;;;13.93;;
71462;SDS011;59266;52.608;13.260;2022-12-18T04:44:13;38.30;;;11.43;;
71462;SDS011;59266;52.608;13.260;2022-12-18T04:46:40;37.35;;;10.43;;
71462;SDS011;59266;52.608;13.260;2022-12-18T04:49:07;48.30;;;11.43;;
71462;SDS011;59266;52.608;13.260;2022-12-18T04:51:34;48.88;;;12.38;;
71462;SDS011;59266;52.608;13.260;2022-12-18T04:54:00;40.13;;;11.43;;
71462;SDS011;59266;52.608;13.260;2022-12-18T04:56:30;54.17;;;12.25;;
71462;SDS011;59266;52.608;13.260;2022-12-18T04:58:58;34.45;;;9.30;;
71462;SDS011;59266;52.608;13.260;2022-12-18T05:01:24;39.03;;;11.38;;
71462;SDS011;59266;52.608;13.260;2022-12-18T05:03:59;51.25;;;11.20;;
71462;SDS011;59266;52.608;13.260;2022-12-18T05:06:26;51.38;;;12.82;;
71462;SDS011;59266;52.608;13.260;2022-12-18T05:08:52;52.95;;;12.10;;
71462;SDS011;59266;52.608;13.260;2022-12-18T05:11:19;54.63;;;13.43;;
71462;SDS011;59266;52.608;13.260;2022-12-18T05:13:45;43.28;;;11.77;;
71462;SDS011;59266;52.608;13.260;2022-12-18T05:16:12;46.50;;;12.50;;
71462;SDS011;59266;52.608;13.260;2022-12-18T05:18:40;40.35;;;11.93;;
71462;SDS011;59266;52.608;13.260;2022-12-18T05:21:07;59.17;;;13.98;;
71462;SDS011;59266;52.608;13.260;2022-12-18T05:23:34;47.40;;;13.27;;
71462;SDS011;59266;52.608;13.260;2022-12-18T05:26:01;52.38;;;12.35;;
71462;SDS011;59266;52.608;13.260;2022-12-18T05:28:30;52.53;;;13.05;;
71462;SDS011;59266;52.608;13.260;2022-12-18T05:30:58;62.10;;;14.95;;
71462;SDS011;59266;52.608;13.260;2022-12-18T05:33:26;51.88;;;11.75;;
71462;SDS011;59266;52.608;13.260;2022-12-18T05:35:59;74.00;;;16.27;;
71462;SDS011;59266;52.608;13.260;2022-12-18T05:38:31;48.25;;;13.07;;
71462;SDS011;59266;52.608;13.260;2022-12-18T05:41:02;43.22;;;12.57;;
71462;SDS011;59266;52.608;13.260;2022-12-18T05:43:36;56.45;;;14.18;;
71462;SDS011;59266;52.608;13.260;2022-12-18T05:46:06;46.75;;;12.40;;
71462;SDS011;59266;52.608;13.260;2022-12-18T05:48:39;51.97;;;11.98;;
71462;SDS011;59266;52.608;13.260;2022-12-18T05:51:06;65.13;;;14.48;;
71462;SDS011;59266;52.608;13.260;2022-12-18T05:53:36;45.22;;;11.90;;
71462;SDS011;59266;52.608;13.260;2022-12-18T05:56:04;52.97;;;12.73;;
71462;SDS011;59266;52.608;13.260;2022-12-18T05:58:32;60.38;;;14.32;;
71462;SDS011;59266;52.608;13.260;2022-12-18T06:01:05;55.47;;;14.00;;
71462;SDS011;59266;52.608;13.260;2022-12-18T06:03:38;57.13;;;14.95;;
71462;SDS011;59266;52.608;13.260;2022-12-18T06:06:19;61.47;;;14.18;;
71462;SDS011;59266;52.608;13.260;2022-12-18T06:08:47;60.90;;;14.48;;
71462;SDS011;59266;52.608;13.260;2022-12-18T06:11:16;56.40;;;14.10;;
71462;SDS011;59266;52.608;13.260;2022-12-18T06:13:46;71.93;;;16.27;;
71462;SDS011;59266;52.608;13.260;2022-12-18T06:16:23;64.45;;;14.35;;
71462;SDS011;59266;52.608;13.260;2022-12-18T06:18:49;72.72;;;16.73;;
71462;SDS011;59266;52.608;13.260;2022-12-18T06:21:16;75.72;;;15.40;;
71462;SDS011;59266;52.608;13.260;2022-12-18T06:23:42;64.97;;;16.70;;
71462;SDS011;59266;52.608;13.260;2022-12-18T06:26:10;65.57;;;16.08;;
71462;SDS011;59266;52.608;13.260;2022-12-18T06:28:38;83.88;;;17.60;;
71462;SDS011;59266;52.608;13.260;2022-12-18T06:31:04;67.93;;;16.15;;
71462;SDS011;59266;52.608;13.260;2022-12-18T06:33:32;80.47;;;17.70;;
71462;SDS011;59266;52.608;13.260;2022-12-18T06:36:00;60.65;;;15.80;;
71462;SDS011;59266;52.608;13.260;2022-12-18T06:38:28;62.70;;;14.57;;
71462;SDS011;59266;52.608;13.260;2022-12-18T06:40:54;80.07;;;17.90;;
71462;SDS011;59266;52.608;13.260;2022-12-18T06:43:21;64.30;;;14.43;;
71462;SDS011;59266;52.608;13.260;2022-12-18T06:45:47;94.72;;;22.42;;
71462;SDS011;59266;52.608;13.260;2022-12-18T06:48:19;76.63;;;17.27;;
71462;SDS011;59266;52.608;13.260;2022-12-18T06:50:46;69.25;;;17.20;;
71462;SDS011;59266;52.608;13.260;2022-12-18T06:53:13;53.15;;;14.18;;
71462;SDS011;59266;52.608;13.260;2022-12-18T06:55:39;66.47;;;16.02;;
71462;SDS011;59266;52.608;13.260;2022-12-18T06:58:06;69.93;;;16.85;;
71462;SDS011;59266;52.608;13.260;2022-12-18T07:00:33;59.50;;;14.85;;
71462;SDS011;59266;52.608;13.260;2022-12-18T07:03:00;66.53;;;14.95;;
71462;SDS011;59266;52.608;13.260;2022-12-18T07:05:27;70.63;;;16.65;;
71462;SDS011;59266;52.608;13.260;2022-12-18T07:07:53;57.80;;;15.80;;
71462;SDS011;59266;52.608;13.260;2022-12-18T07:10:20;59.30;;;16.50;;
71462;SDS011;59266;52.608;13.260;2022-12-18T07:12:46;55.05;;;15.30;;
71462;SDS011;59266;52.608;13.260;2022-12-18T07:15:12;58.55;;;15.05;;
71462;SDS011;59266;52.608;13.260;2022-12-18T07:17:40;73.85;;;15.20;;
71462;SDS011;59266;52.608;13.260;2022-12-18T07:20:07;65.80;;;16.80;;
71462;SDS011;59266;52.608;13.260;2022-12-18T07:22:34;48.95;;;12.80;;
71462;SDS011;59266;52.608;13.260;2022-12-18T07:25:01;68.70;;;15.02;;
71462;SDS011;59266;52.608;13.260;2022-12-18T07:27:27;68.80;;;18.27;;
71462;SDS011;59266;52.608;13.260;2022-12-18T07:29:54;61.05;;;14.75;;
71462;SDS011;59266;52.608;13.260;2022-12-18T07:32:21;65.90;;;16.13;;
71462;SDS011;59266;52.608;13.260;2022-12-18T07:34:47;70.18;;;15.85;;
71462;SDS011;59266;52.608;13.260;2022-12-18T07:37:14;74.35;;;17.85;;
71462;SDS011;59266;52.608;13.260;2022-12-18T07:39:40;69.43;;;17.25;;
71462;SDS011;59266;52.608;13.260;2022-12-18T07:42:07;71.05;;;16.17;;
71462;SDS011;59266;52.608;13.260;2022-12-18T07:44:53;49.90;;;14.52;;
71462;SDS011;59266;52.608;13.260;2022-12-18T07:47:21;71.40;;;17.27;;
71462;SDS011;59266;52.608;13.260;2022-12-18T07:49:48;66.03;;;16.83;;
71462;SDS011;59266;52.608;13.260;2022-12-18T07:52:15;69.25;;;16.10;;
71462;SDS011;59266;52.608;13.260;2022-12-18T07:54:49;81.80;;;17.42;;
71462;SDS011;59266;52.608;13.260;2022-12-18T07:57:16;60.10;;;13.55;;
71462;SDS011;59266;52.608;13.260;2022-12-18T08:00:03;61.47;;;15.77;;
71462;SDS011;59266;52.608;13.260;2022-12-18T08:02:30;55.10;;;14.98;;
71462;SDS011;59266;52.608;13.260;2022-12-18T08:04:58;56.78;;;15.00;;
71462;SDS011;59266;52.608;13.260;2022-12-18T08:07:24;52.85;;;13.00;;
71462;SDS011;59266;52.608;13.260;2022-12-18T08:09:51;68.80;;;18.00;;
71462;SDS011;59266;52.608;13.260;2022-12-18T08:12:17;66.30;;;15.52;;
71462;SDS011;59266;52.608;13.260;2022-12-18T08:14:44;54.17;;;14.75;;
71462;SDS011;59266;52.608;13.260;2022-12-18T08:17:10;60.42;;;16.15;;
71462;SDS011;59266;52.608;13.260;2022-12-18T08:19:37;48.72;;;11.52;;
71462;SDS011;59266;52.608;13.260;2022-12-18T08:22:04;56.10;;;13.20;;
71462;SDS011;59266;52.608;13.260;2022-12-18T08:24:30;52.83;;;14.20;;
71462;SDS011;59266;52.608;13.260;2022-12-18T08:27:08;42.35;;;12.88;;
71462;SDS011;59266;52.608;13.260;2022-12-18T08:29:54;58.67;;;14.00;;
71462;SDS011;59266;52.608;13.260;2022-12-18T08:32:21;62.17;;;15.88;;
71462;SDS011;59266;52.608;13.260;2022-12-18T08:34:48;43.70;;;12.68;;
71462;SDS011;59266;52.608;13.260;2022-12-18T08:37:14;42.65;;;11.57;;
71462;SDS011;59266;52.608;13.260;2022-12-18T08:39:40;51.30;;;12.38;;
71462;SDS011;59266;52.608;13.260;2022-12-18T08:42:07;59.38;;;12.40;;
71462;SDS011;59266;52.608;13.260;2022-12-18T08:44:55;56.42;;;13.43;;
71462;SDS011;59266;52.608;13.260;2022-12-18T08:47:21;49.45;;;13.35;;
71462;SDS011;59266;52.608;13.260;2022-12-18T08:49:49;49.55;;;12.63;;
71462;SDS011;59266;52.608;13.260;2022-12-18T08:52:16;52.75;;;14.68;;
71462;SDS011;59266;52.608;13.260;2022-12-18T08:54:43;52.53;;;15.32;;
71462;SDS011;59266;52.608;13.260;2022-12-18T08:57:09;50.72;;;14.00;;
71462;SDS011;59266;52.608;13.260;2022-12-18T08:59:36;59.08;;;15.38;;
71462;SDS011;59266;52.608;13.260;2022-12-18T09:02:02;47.35;;;12.93;;
71462;SDS011;59266;52.608;13.260;2022-12-18T09:04:32;51.58;;;14.73;;
71462;SDS011;59266;52.608;13.260;2022-12-18T09:06:59;62.22;;;16.73;;
71462;SDS011;59266;52.608;13.260;2022-12-18T09:09:26;55.15;;;13.70;;
71462;SDS011;59266;52.608;13.260;2022-12-18T09:11:52;65.57;;;14.27;;
71462;SDS011;59266;52.608;13.260;2022-12-18T09:14:19;63.78;;;17.25;;
71462;SDS011;59266;52.608;13.260;2022-12-18T09:16:45;54.38;;;13.55;;
71462;SDS011;59266;52.608;13.260;2022-12-18T09:19:12;65.80;;;17.83;;
71462;SDS011;59266;52.608;13.260;2022-12-18T09:21:39;52.50;;;14.43;;
71462;SDS011;59266;52.608;13.260;2022-12-18T09:24:13;43.92;;;13.35;;
71462;SDS011;59266;52.608;13.260;2022-12-18T09:26:42;43.22;;;11.43;;
71462;SDS011;59266;52.608;13.260;2022-12-18T09:29:12;58.72;;;11.90;;
71462;SDS011;59266;52.608;13.260;2022-12-18T09:31:39;54.92;;;14.68;;
71462;SDS011;59266;52.608;13.260;2022-12-18T09:34:07;48.67;;;12.00;;
71462;SDS011;59266;52.608;13.260;2022-12-18T09:36:33;54.90;;;12.73;;
71462;SDS011;59266;52.608;13.260;2022-12-18T09:39:00;45.75;;;12.80;;
71462;SDS011;59266;52.608;13.260;2022-12-18T09:44:10;40.10;;;11.18;;
71462;SDS011;59266;52.608;13.260;2022-12-18T09:47:33;56.95;;;15.38;;
71462;SDS011;59266;52.608;13.260;2022-12-18T09:49:34;55.83;;;15.75;;
71462;SDS011;59266;52.608;13.260;2022-12-18T09:52:09;48.88;;;14.10;;
71462;SDS011;59266;52.608;13.260;2022-12-18T09:54:40;44.63;;;11.70;;
71462;SDS011;59266;52.608;13.260;2022-12-18T09:57:13;53.97;;;13.75;;
71462;SDS011;59266;52.608;13.260;2022-12-18T09:59:42;38.10;;;12.05;;
71462;SDS011;59266;52.608;13.260;2022-12-18T10:02:17;60.53;;;13.07;;
71462;SDS011;59266;52.608;13.260;2022-12-18T10:04:50;50.08;;;13.65;;
71462;SDS011;59266;52.608;13.260;2022-12-18T10:07:59;44.17;;;12.25;;
71462;SDS011;59266;52.608;13.260;2022-12-18T10:13:18;38.35;;;10.38;;
71462;SDS011;59266;52.608;13.260;2022-12-18T10:21:20;39.33;;;12.02;;
71462;SDS011;59266;52.608;13.260;2022-12-18T10:23:55;46.03;;;13.20;;
71462;SDS011;59266;52.608;13.260;2022-12-18T10:26:31;41.08;;;11.32;;
71462;SDS011;59266;52.608;13.260;2022-12-18T10:28:58;46.75;;;12.70;;
71462;SDS011;59266;52.608;13.260;2022-12-18T10:31:30;52.00;;;13.93;;
71462;SDS011;59266;52.608;13.260;2022-12-18T10:33:57;49.85;;;12.05;;
71462;SDS011;59266;52.608;13.260;2022-12-18T10:36:24;49.17;;;12.00;;
71462;SDS011;59266;52.608;13.260;2022-12-18T10:38:51;41.85;;;12.25;;
71462;SDS011;59266;52.608;13.260;2022-12-18T10:46:41;43.63;;;11.07;;
71462;SDS011;59266;52.608;13.260;2022-12-18T10:49:18;45.40;;;11.48;;
71462;SDS011;59266;52.608;13.260;2022-12-18T10:51:47;51.97;;;14.18;;
71462;SDS011;59266;52.608;13.260;2022-12-18T10:54:15;48.10;;;13.27;;
71462;SDS011;59266;52.608;13.260;2022-12-18T10:56:47;45.90;;;13.52;;
71462;SDS011;59266;52.608;13.260;2022-12-18T10:59:15;50.28;;;13.60;;
71462;SDS011;59266;52.608;13.260;2022-12-18T11:01:53;35.65;;;10.77;;
71462;SDS011;59266;52.608;13.260;2022-12-18T11:06:58;46.15;;;12.40;;
71462;SDS011;59266;52.608;13.260;2022-12-18T11:09:30;41.45;;;12.70;;
71462;SDS011;59266;52.608;13.260;2022-12-18T11:14:32;46.80;;;13.10;;
71462;SDS011;59266;52.608;13.260;2022-12-18T11:17:31;46.00;;;12.25;;
71462;SDS011;59266;52.608;13.260;2022-12-18T11:20:01;50.17;;;12.90;;
71462;SDS011;59266;52.608;13.260;2022-12-18T11:22:32;42.63;;;12.68;;
71462;SDS011;59266;52.608;13.260;2022-12-18T11:25:02;51.03;;;13.50;;
71462;SDS011;59266;52.608;13.260;2022-12-18T11:27:57;48.00;;;14.48;;
71462;SDS011;59266;52.608;13.260;2022-12-18T11:30:28;44.05;;;13.35;;
71462;SDS011;59266;52.608;13.260;2022-12-18T11:33:04;46.67;;;13.85;;
71462;SDS011;59266;52.608;13.260;2022-12-18T11:35:52;43.60;;;13.43;;
71462;SDS011;59266;52.608;13.260;2022-12-18T11:38:39;45.25;;;12.90;;
71462;SDS011;59266;52.608;13.260;2022-12-18T11:41:25;44.22;;;12.73;;
71462;SDS011;59266;52.608;13.260;2022-12-18T11:44:15;49.20;;;13.00;;
71462;SDS011;59266;52.608;13.260;2022-12-18T11:47:03;41.50;;;12.07;;
71462;SDS011;59266;52.608;13.260;2022-12-18T11:49:35;36.63;;;12.00;;
71462;SDS011;59266;52.608;13.260;2022-12-18T11:52:04;44.33;;;14.05;;
71462;SDS011;59266;52.608;13.260;2022-12-18T11:54:39;47.30;;;13.38;;
71462;SDS011;59266;52.608;13.260;2022-12-18T11:57:15;53.08;;;14.15;;
71462;SDS011;59266;52.608;13.260;2022-12-18T12:11:16;56.88;;;14.60;;
71462;SDS011;59266;52.608;13.260;2022-12-18T12:13:52;46.88;;;11.73;;
71462;SDS011;59266;52.608;13.260;2022-12-18T12:16:47;51.15;;;14.00;;
71462;SDS011;59266;52.608;13.260;2022-12-18T12:19:27;53.13;;;15.65;;
71462;SDS011;59266;52.608;13.260;2022-12-18T12:22:04;42.83;;;12.23;;
71462;SDS011;59266;52.608;13.260;2022-12-18T12:24:54;41.03;;;12.25;;
71462;SDS011;59266;52.608;13.260;2022-12-18T12:38:22;41.45;;;12.20;;
71462;SDS011;59266;52.608;13.260;2022-12-18T12:40:59;37.25;;;11.52;;
71462;SDS011;59266;52.608;13.260;2022-12-18T12:43:36;39.10;;;11.85;;
71462;SDS011;59266;52.608;13.260;2022-12-18T12:46:19;43.08;;;13.45;;
71462;SDS011;59266;52.608;13.260;2022-12-18T12:48:50;40.60;;;11.27;;
71462;SDS011;59266;52.608;13.260;2022-12-18T12:52:03;38.03;;;11.18;;
71462;SDS011;59266;52.608;13.260;2022-12-18T12:54:16;40.83;;;12.60;;
71462;SDS011;59266;52.608;13.260;2022-12-18T12:59:52;44.03;;;12.15;;
71462;SDS011;59266;52.608;13.260;2022-12-18T13:03:27;41.08;;;11.90;;
71462;SDS011;59266;52.608;13.260;2022-12-18T13:05:23;40.55;;;12.98;;
71462;SDS011;59266;52.608;13.260;2022-12-18T13:13:12;42.60;;;12.60;;
71462;SDS011;59266;52.608;13.260;2022-12-18T13:16:03;43.58;;;13.65;;
71462;SDS011;59266;52.608;13.260;2022-12-18T13:18:33;43.80;;;13.02;;
71462;SDS011;59266;52.608;13.260;2022-12-18T13:21:02;40.38;;;12.52;;
71462;SDS011;59266;52.608;13.260;2022-12-18T13:23:39;45.97;;;12.57;;
71462;SDS011;59266;52.608;13.260;2022-12-18T13:34:15;44.33;;;12.45;;
71462;SDS011;59266;52.608;13.260;2022-12-18T13:39:58;43.42;;;13.27;;
71462;SDS011;59266;52.608;13.260;2022-12-18T13:42:38;36.83;;;11.30;;
71462;SDS011;59266;52.608;13.260;2022-12-18T13:48:16;37.63;;;11.25;;
71462;SDS011;59266;52.608;13.260;2022-12-18T13:50:48;35.83;;;12.20;;
71462;SDS011;59266;52.608;13.260;2022-12-18T13:53:21;36.55;;;10.55;;
71462;SDS011;59266;52.608;13.260;2022-12-18T13:55:51;39.17;;;12.70;;
71462;SDS011;59266;52.608;13.260;2022-12-18T13:58:17;30.70;;;11.40;;
71462;SDS011;59266;52.608;13.260;2022-12-18T14:00:44;45.38;;;13.27;;
71462;SDS011;59266;52.608;13.260;2022-12-18T14:03:19;37.58;;;13.77;;
71462;SDS011;59266;52.608;13.260;2022-12-18T14:06:05;40.70;;;13.52;;
71462;SDS011;59266;52.608;13.260;2022-12-18T14:08:44;38.10;;;11.65;;
71462;SDS011;59266;52.608;13.260;2022-12-18T14:11:26;36.25;;;11.68;;
71462;SDS011;59266;52.608;13.260;2022-12-18T14:13:53;36.05;;;12.15;;
71462;SDS011;59266;52.608;13.260;2022-12-18T14:16:23;41.33;;;14.35;;
71462;SDS011;59266;52.608;13.260;2022-12-18T14:18:52;35.70;;;11.35;;
71462;SDS011;59266;52.608;13.260;2022-12-18T14:21:49;35.78;;;11.52;;
71462;SDS011;59266;52.608;13.260;2022-12-18T14:24:17;44.45;;;14.05;;
71462;SDS011;59266;52.608;13.260;2022-12-18T14:27:12;33.83;;;11.43;;
71462;SDS011;59266;52.608;13.260;2022-12-18T14:29:45;38.67;;;12.52;;
71462;SDS011;59266;52.608;13.260;2022-12-18T14:32:19;40.85;;;12.68;;
71462;SDS011;59266;52.608;13.260;2022-12-18T14:34:48;43.25;;;13.75;;
71462;SDS011;59266;52.608;13.260;2022-12-18T14:37:22;46.97;;;16.35;;
71462;SDS011;59266;52.608;13.260;2022-12-18T14:39:55;35.25;;;11.23;;
71462;SDS011;59266;52.608;13.260;2022-12-18T14:42:37;46.65;;;13.13;;
71462;SDS011;59266;52.608;13.260;2022-12-18T14:50:39;36.83;;;13.32;;
71462;SDS011;59266;52.608;13.260;2022-12-18T14:53:06;42.05;;;13.80;;
71462;SDS011;59266;52.608;13.260;2022-12-18T14:55:47;41.05;;;12.50;;
71462;SDS011;59266;52.608;13.260;2022-12-18T14:58:15;42.50;;;12.40;;
71462;SDS011;59266;52.608;13.260;2022-12-18T15:00:46;41.00;;;13.63;;
71462;SDS011;59266;52.608;13.260;2022-12-18T15:03:15;41.25;;;13.75;;
71462;SDS011;59266;52.608;13.260;2022-12-18T15:05:46;38.03;;;12.25;;
71462;SDS011;59266;52.608;13.260;2022-12-18T15:08:24;44.58;;;17.80;;
71462;SDS011;59266;52.608;13.260;2022-12-18T15:10:55;47.10;;;14.75;;
71462;SDS011;59266;52.608;13.260;2022-12-18T15:13:23;49.53;;;15.60;;
71462;SDS011;59266;52.608;13.260;2022-12-18T15:15:51;51.85;;;17.77;;
71462;SDS011;59266;52.608;13.260;2022-12-18T15:18:20;51.25;;;15.82;;
71462;SDS011;59266;52.608;13.260;2022-12-18T15:20:53;47.78;;;16.45;;
71462;SDS011;59266;52.608;13.260;2022-12-18T15:23:24;39.63;;;13.77;;
71462;SDS011;59266;52.608;13.260;2022-12-18T15:28:50;38.83;;;13.27;;
71462;SDS011;59266;52.608;13.260;2022-12-18T15:31:28;38.20;;;13.55;;
71462;SDS011;59266;52.608;13.260;2022-12-18T15:36:28;41.03;;;12.48;;
71462;SDS011;59266;52.608;13.260;2022-12-18T15:38:57;37.97;;;11.88;;
71462;SDS011;59266;52.608;13.260;2022-12-18T15:41:31;33.22;;;12.65;;
71462;SDS011;59266;52.608;13.260;2022-12-18T15:44:01;30.23;;;11.27;;
71462;SDS011;59266;52.608;13.260;2022-12-18T15:46:29;32.60;;;11.63;;
71462;SDS011;59266;52.608;13.260;2022-12-18T15:48:57;31.40;;;12.13;;
71462;SDS011;59266;52.608;13.260;2022-12-18T15:51:31;24.00;;;7.50;;
71462;SDS011;59266;52.608;13.260;2022-12-18T15:54:01;34.45;;;11.55;;
71462;SDS011;59266;52.608;13.260;2022-12-18T15:56:32;34.47;;;11.35;;
71462;SDS011;59266;52.608;13.260;2022-12-18T15:59:19;20.52;;;7.90;;
71462;SDS011;59266;52.608;13.260;2022-12-18T16:01:47;34.05;;;14.27;;
71462;SDS011;59266;52.608;13.260;2022-12-18T16:04:16;37.20;;;11.77;;
71462;SDS011;59266;52.608;13.260;2022-12-18T16:06:46;28.05;;;10.93;;
71462;SDS011;59266;52.608;13.260;2022-12-18T16:09:33;36.20;;;13.93;;
71462;SDS011;59266;52.608;13.260;2022-12-18T16:12:00;31.95;;;11.95;;
71462;SDS011;59266;52.608;13.260;2022-12-18T16:14:27;32.88;;;11.65;;